sensor_id;sensor_type;location;lat;lon;timestamp;pressure;altitude;pressure_sealevel;temperature;humidity
53719;BME280;39616;48.872;9.390;2022-08-19T00:00:29;97844.09;;;20.25;93.99
53719;BME280;39616;48.872;9.390;2022-08-19T00:03:00;97842.16;;;20.26;94.83
53719;BME280;39616;48.872;9.390;2022-08-19T00:05:31;97847.22;;;20.24;94.60
53719;BME280;39616;48.872;9.390;2022-08-19T00:08:02;97852.72;;;20.24;94.32
53719;BME280;39616;48.872;9.390;2022-08-19T00:10:32;97853.47;;;20.21;95.76
53719;BME280;39616;48.872;9.390;2022-08-19T00:13:04;97845.97;;;20.18;94.97
53719;BME280;39616;48.872;9.390;2022-08-19T00:15:34;97847.91;;;20.17;95.43
53719;BME280;39616;48.872;9.390;2022-08-19T00:18:04;97850.66;;;20.17;95.44
53719;BME280;39616;48.872;9.390;2022-08-19T00:20:34;97856.50;;;20.12;95.47
53719;BME280;39616;48.872;9.390;2022-08-19T00:23:05;97857.72;;;20.15;95.93
53719;BME280;39616;48.872;9.390;2022-08-19T00:25:35;97858.84;;;20.14;95.35
53719;BME280;39616;48.872;9.390;2022-08-19T00:28:06;97851.41;;;20.14;96.18
53719;BME280;39616;48.872;9.390;2022-08-19T00:30:36;97848.66;;;20.14;95.50
53719;BME280;39616;48.872;9.390;2022-08-19T00:33:07;97854.16;;;20.14;95.81
53719;BME280;39616;48.872;9.390;2022-08-19T00:35:38;97856.06;;;20.10;95.14
53719;BME280;39616;48.872;9.390;2022-08-19T00:38:08;97849.34;;;20.08;95.27
53719;BME280;39616;48.872;9.390;2022-08-19T00:40:39;97841.88;;;20.08;95.58
53719;BME280;39616;48.872;9.390;2022-08-19T00:43:10;97834.81;;;20.07;96.75
53719;BME280;39616;48.872;9.390;2022-08-19T00:45:41;97833.91;;;19.99;95.91
53719;BME280;39616;48.872;9.390;2022-08-19T00:48:14;97836.22;;;19.97;95.76
53719;BME280;39616;48.872;9.390;2022-08-19T00:50:45;97842.56;;;20.01;95.33
53719;BME280;39616;48.872;9.390;2022-08-19T00:53:20;97842.16;;;19.99;96.16
53719;BME280;39616;48.872;9.390;2022-08-19T00:55:52;97846.00;;;19.95;96.66
53719;BME280;39616;48.872;9.390;2022-08-19T00:58:27;97842.03;;;19.92;96.35
53719;BME280;39616;48.872;9.390;2022-08-19T01:00:59;97838.53;;;19.95;95.82
53719;BME280;39616;48.872;9.390;2022-08-19T01:03:30;97842.84;;;19.93;95.32
53719;BME280;39616;48.872;9.390;2022-08-19T01:06:01;97838.53;;;19.95;96.14
53719;BME280;39616;48.872;9.390;2022-08-19T01:08:31;97848.81;;;19.98;96.32
53719;BME280;39616;48.872;9.390;2022-08-19T01:11:01;97845.66;;;19.96;96.16
53719;BME280;39616;48.872;9.390;2022-08-19T01:13:33;97844.78;;;19.92;96.19
53719;BME280;39616;48.872;9.390;2022-08-19T01:16:07;97847.16;;;19.94;96.10
53719;BME280;39616;48.872;9.390;2022-08-19T01:18:41;97852.66;;;19.94;96.70
53719;BME280;39616;48.872;9.390;2022-08-19T01:21:27;97847.59;;;19.96;96.91
53719;BME280;39616;48.872;9.390;2022-08-19T01:24:00;97849.13;;;19.93;96.04
53719;BME280;39616;48.872;9.390;2022-08-19T01:26:31;97841.28;;;19.95;95.96
53719;BME280;39616;48.872;9.390;2022-08-19T01:29:08;97842.84;;;19.93;96.32
53719;BME280;39616;48.872;9.390;2022-08-19T01:31:39;97849.88;;;19.90;96.39
53719;BME280;39616;48.872;9.390;2022-08-19T01:34:09;97838.47;;;19.92;96.96
53719;BME280;39616;48.872;9.390;2022-08-19T01:36:43;97832.91;;;19.88;97.46
53719;BME280;39616;48.872;9.390;2022-08-19T01:39:22;97832.13;;;19.88;96.26
53719;BME280;39616;48.872;9.390;2022-08-19T01:41:52;97823.53;;;19.89;97.11
53719;BME280;39616;48.872;9.390;2022-08-19T01:44:24;97830.94;;;19.85;96.74
53719;BME280;39616;48.872;9.390;2022-08-19T01:46:54;97830.03;;;19.77;98.45
53719;BME280;39616;48.872;9.390;2022-08-19T01:49:25;97840.66;;;19.79;98.15
53719;BME280;39616;48.872;9.390;2022-08-19T01:51:56;97841.72;;;19.71;98.36
53719;BME280;39616;48.872;9.390;2022-08-19T01:54:28;97836.94;;;19.68;99.41
53719;BME280;39616;48.872;9.390;2022-08-19T01:57:05;97834.59;;;19.70;99.25
53719;BME280;39616;48.872;9.390;2022-08-19T01:59:39;97837.72;;;19.68;99.11
53719;BME280;39616;48.872;9.390;2022-08-19T02:02:11;97835.63;;;19.62;100.00
53719;BME280;39616;48.872;9.390;2022-08-19T02:04:41;97829.84;;;19.67;99.85
53719;BME280;39616;48.872;9.390;2022-08-19T02:07:12;97836.09;;;19.64;99.58
53719;BME280;39616;48.872;9.390;2022-08-19T02:09:42;97841.59;;;19.64;100.00
53719;BME280;39616;48.872;9.390;2022-08-19T02:12:12;97844.25;;;19.60;100.00
53719;BME280;39616;48.872;9.390;2022-08-19T02:14:43;97850.47;;;19.57;100.00
53719;BME280;39616;48.872;9.390;2022-08-19T02:17:13;97837.97;;;19.60;100.00
53719;BME280;39616;48.872;9.390;2022-08-19T02:19:43;97844.25;;;19.60;100.00
53719;BME280;39616;48.872;9.390;2022-08-19T02:22:14;97837.50;;;19.58;100.00
53719;BME280;39616;48.872;9.390;2022-08-19T02:24:44;97848.41;;;19.50;100.00
53719;BME280;39616;48.872;9.390;2022-08-19T02:27:15;97855.91;;;19.53;100.00
53719;BME280;39616;48.872;9.390;2022-08-19T02:29:47;97856.63;;;19.50;100.00
53719;BME280;39616;48.872;9.390;2022-08-19T02:32:19;97855.50;;;19.51;100.00
53719;BME280;39616;48.872;9.390;2022-08-19T02:34:49;97861.34;;;19.50;100.00
53719;BME280;39616;48.872;9.390;2022-08-19T02:37:20;97859.38;;;19.50;100.00
53719;BME280;39616;48.872;9.390;2022-08-19T02:40:09;97846.44;;;19.51;100.00
53719;BME280;39616;48.872;9.390;2022-08-19T02:42:39;97846.31;;;19.44;100.00
53719;BME280;39616;48.872;9.390;2022-08-19T02:45:12;97842.03;;;19.46;100.00
53719;BME280;39616;48.872;9.390;2022-08-19T02:47:43;97830.97;;;19.43;100.00
53719;BME280;39616;48.872;9.390;2022-08-19T02:50:13;97842.34;;;19.41;100.00
53719;BME280;39616;48.872;9.390;2022-08-19T02:52:44;97839.16;;;19.39;100.00
53719;BME280;39616;48.872;9.390;2022-08-19T02:55:15;97844.59;;;19.36;100.00
53719;BME280;39616;48.872;9.390;2022-08-19T02:57:46;97838.69;;;19.34;100.00
53719;BME280;39616;48.872;9.390;2022-08-19T03:00:17;97831.84;;;19.24;100.00
53719;BME280;39616;48.872;9.390;2022-08-19T03:02:47;97826.59;;;19.15;100.00
53719;BME280;39616;48.872;9.390;2022-08-19T03:05:19;97829.75;;;19.17;100.00
53719;BME280;39616;48.872;9.390;2022-08-19T03:07:49;97837.19;;;19.17;100.00
53719;BME280;39616;48.872;9.390;2022-08-19T03:10:19;97830.19;;;19.19;100.00
53719;BME280;39616;48.872;9.390;2022-08-19T03:12:50;97833.72;;;19.20;100.00
53719;BME280;39616;48.872;9.390;2022-08-19T03:15:20;97843.00;;;19.12;100.00
53719;BME280;39616;48.872;9.390;2022-08-19T03:17:50;97843.00;;;19.12;100.00
53719;BME280;39616;48.872;9.390;2022-08-19T03:20:21;97843.34;;;19.10;100.00
53719;BME280;39616;48.872;9.390;2022-08-19T03:22:51;97848.28;;;19.01;100.00
53719;BME280;39616;48.872;9.390;2022-08-19T03:25:21;97844.00;;;19.03;100.00
53719;BME280;39616;48.872;9.390;2022-08-19T03:27:52;97847.44;;;18.97;100.00
53719;BME280;39616;48.872;9.390;2022-08-19T03:30:22;97855.75;;;19.00;100.00
53719;BME280;39616;48.872;9.390;2022-08-19T03:32:52;97852.94;;;18.97;100.00
53719;BME280;39616;48.872;9.390;2022-08-19T03:35:23;97858.69;;;18.92;100.00
53719;BME280;39616;48.872;9.390;2022-08-19T03:37:53;97852.84;;;18.93;100.00
53719;BME280;39616;48.872;9.390;2022-08-19T03:40:23;97856.03;;;18.95;100.00
53719;BME280;39616;48.872;9.390;2022-08-19T03:42:54;97860.66;;;18.91;100.00
53719;BME280;39616;48.872;9.390;2022-08-19T03:45:24;97852.84;;;18.93;100.00
53719;BME280;39616;48.872;9.390;2022-08-19T03:47:55;97858.63;;;18.88;100.00
53719;BME280;39616;48.872;9.390;2022-08-19T03:50:25;97853.94;;;18.89;100.00
53719;BME280;39616;48.872;9.390;2022-08-19T03:52:55;97841.00;;;18.89;100.00
53719;BME280;39616;48.872;9.390;2022-08-19T03:55:26;97848.72;;;18.83;100.00
53719;BME280;39616;48.872;9.390;2022-08-19T03:57:56;97852.72;;;18.86;100.00
53719;BME280;39616;48.872;9.390;2022-08-19T04:00:26;97859.88;;;18.91;100.00
53719;BME280;39616;48.872;9.390;2022-08-19T04:02:57;97857.50;;;18.89;100.00
53719;BME280;39616;48.872;9.390;2022-08-19T04:05:28;97859.34;;;18.85;100.00
53719;BME280;39616;48.872;9.390;2022-08-19T04:07:58;97862.16;;;18.89;100.00
53719;BME280;39616;48.872;9.390;2022-08-19T04:10:29;97849.25;;;18.89;100.00
53719;BME280;39616;48.872;9.390;2022-08-19T04:12:59;97854.75;;;18.89;100.00
53719;BME280;39616;48.872;9.390;2022-08-19T04:15:29;97846.06;;;18.87;100.00
53719;BME280;39616;48.872;9.390;2022-08-19T04:18:01;97847.56;;;18.85;100.00
53719;BME280;39616;48.872;9.390;2022-08-19T04:20:31;97853.44;;;18.83;100.00
53719;BME280;39616;48.872;9.390;2022-08-19T04:23:02;97850.69;;;18.83;100.00
53719;BME280;39616;48.872;9.390;2022-08-19T04:25:42;97844.03;;;18.84;100.00
53719;BME280;39616;48.872;9.390;2022-08-19T04:28:13;97845.13;;;18.79;100.00
53719;BME280;39616;48.872;9.390;2022-08-19T04:30:47;97850.25;;;18.81;100.00
53719;BME280;39616;48.872;9.390;2022-08-19T04:33:24;97847.16;;;18.82;100.00
53719;BME280;39616;48.872;9.390;2022-08-19T04:35:54;97851.09;;;18.85;100.00
53719;BME280;39616;48.872;9.390;2022-08-19T04:38:25;97836.25;;;18.86;100.00
53719;BME280;39616;48.872;9.390;2022-08-19T04:40:55;97845.19;;;18.83;100.00
53719;BME280;39616;48.872;9.390;2022-08-19T04:43:44;97848.00;;;18.87;100.00
53719;BME280;39616;48.872;9.390;2022-08-19T04:46:18;97851.09;;;18.85;100.00
53719;BME280;39616;48.872;9.390;2022-08-19T04:48:49;97845.50;;;18.78;100.00
53719;BME280;39616;48.872;9.390;2022-08-19T04:51:19;97858.78;;;18.76;100.00
53719;BME280;39616;48.872;9.390;2022-08-19T04:53:51;97847.00;;;18.75;100.00
53719;BME280;39616;48.872;9.390;2022-08-19T04:56:22;97851.78;;;18.78;100.00
53719;BME280;39616;48.872;9.390;2022-08-19T04:58:56;97850.47;;;18.72;100.00
53719;BME280;39616;48.872;9.390;2022-08-19T05:01:27;97853.38;;;18.79;100.00
53719;BME280;39616;48.872;9.390;2022-08-19T05:04:05;97856.03;;;18.76;100.00
53719;BME280;39616;48.872;9.390;2022-08-19T05:06:36;97865.28;;;18.87;100.00
53719;BME280;39616;48.872;9.390;2022-08-19T05:09:06;97865.66;;;18.86;100.00
53719;BME280;39616;48.872;9.390;2022-08-19T05:11:37;97864.28;;;18.76;100.00
53719;BME280;39616;48.872;9.390;2022-08-19T05:14:09;97871.44;;;18.80;100.00
53719;BME280;39616;48.872;9.390;2022-08-19T05:16:42;97887.72;;;18.89;100.00
53719;BME280;39616;48.872;9.390;2022-08-19T05:19:13;97891.88;;;18.83;100.00
53719;BME280;39616;48.872;9.390;2022-08-19T05:22:02;97906.88;;;18.86;100.00
53719;BME280;39616;48.872;9.390;2022-08-19T05:24:51;97906.03;;;18.85;100.00
53719;BME280;39616;48.872;9.390;2022-08-19T05:27:21;97911.63;;;18.89;100.00
53719;BME280;39616;48.872;9.390;2022-08-19T05:29:52;97924.56;;;18.88;100.00
53719;BME280;39616;48.872;9.390;2022-08-19T05:32:22;97930.56;;;18.94;100.00
53719;BME280;39616;48.872;9.390;2022-08-19T05:34:53;97930.56;;;18.94;100.00
53719;BME280;39616;48.872;9.390;2022-08-19T05:37:23;97942.34;;;18.94;100.00
53719;BME280;39616;48.872;9.390;2022-08-19T05:39:56;97946.34;;;18.97;100.00
53719;BME280;39616;48.872;9.390;2022-08-19T05:42:27;97948.72;;;18.98;100.00
53719;BME280;39616;48.872;9.390;2022-08-19T05:44:57;97950.66;;;18.98;100.00
53719;BME280;39616;48.872;9.390;2022-08-19T05:47:28;97953.13;;;19.03;100.00
53719;BME280;39616;48.872;9.390;2022-08-19T05:49:58;97959.78;;;19.02;100.00
53719;BME280;39616;48.872;9.390;2022-08-19T05:52:29;97955.44;;;19.01;100.00
53719;BME280;39616;48.872;9.390;2022-08-19T05:55:00;97957.47;;;19.04;100.00
53719;BME280;39616;48.872;9.390;2022-08-19T05:57:30;97960.72;;;19.10;100.00
53719;BME280;39616;48.872;9.390;2022-08-19T06:00:00;97949.88;;;18.97;100.00
53719;BME280;39616;48.872;9.390;2022-08-19T06:02:32;97955.06;;;19.02;100.00
53719;BME280;39616;48.872;9.390;2022-08-19T06:05:04;97961.75;;;19.01;100.00
53719;BME280;39616;48.872;9.390;2022-08-19T06:07:38;97960.50;;;18.99;100.00
53719;BME280;39616;48.872;9.390;2022-08-19T06:10:10;97962.97;;;19.04;100.00
53719;BME280;39616;48.872;9.390;2022-08-19T06:12:41;97953.91;;;19.03;100.00
53719;BME280;39616;48.872;9.390;2022-08-19T06:15:13;97955.94;;;19.06;100.00
53719;BME280;39616;48.872;9.390;2022-08-19T06:17:43;97956.81;;;19.11;100.00
53719;BME280;39616;48.872;9.390;2022-08-19T06:20:17;97951.75;;;19.13;100.00
53719;BME280;39616;48.872;9.390;2022-08-19T06:22:49;97947.91;;;19.17;100.00
53719;BME280;39616;48.872;9.390;2022-08-19T06:25:21;97954.81;;;19.08;100.00
53719;BME280;39616;48.872;9.390;2022-08-19T06:27:51;97952.78;;;19.04;100.00
53719;BME280;39616;48.872;9.390;2022-08-19T06:30:23;97947.78;;;19.10;100.00
53719;BME280;39616;48.872;9.390;2022-08-19T06:32:53;97945.81;;;19.11;100.00
53719;BME280;39616;48.872;9.390;2022-08-19T06:35:23;97956.03;;;19.10;100.00
53719;BME280;39616;48.872;9.390;2022-08-19T06:37:55;97957.56;;;19.08;100.00
53719;BME280;39616;48.872;9.390;2022-08-19T06:40:25;97955.16;;;19.06;100.00
53719;BME280;39616;48.872;9.390;2022-08-19T06:42:57;97955.44;;;19.20;100.00
53719;BME280;39616;48.872;9.390;2022-08-19T06:45:29;97953.19;;;19.06;100.00
53719;BME280;39616;48.872;9.390;2022-08-19T06:48:00;97951.47;;;19.18;100.00
53719;BME280;39616;48.872;9.390;2022-08-19T06:50:30;97953.06;;;19.19;100.00
53719;BME280;39616;48.872;9.390;2022-08-19T06:53:01;97948.84;;;19.25;100.00
53719;BME280;39616;48.872;9.390;2022-08-19T06:55:32;97955.16;;;19.25;100.00
53719;BME280;39616;48.872;9.390;2022-08-19T06:58:04;97945.53;;;19.35;100.00
53719;BME280;39616;48.872;9.390;2022-08-19T07:00:34;97958.41;;;19.31;100.00
53719;BME280;39616;48.872;9.390;2022-08-19T07:03:06;97955.50;;;19.43;100.00
53719;BME280;39616;48.872;9.390;2022-08-19T07:05:39;97960.41;;;19.53;100.00
53719;BME280;39616;48.872;9.390;2022-08-19T07:08:10;97960.78;;;19.52;100.00
53719;BME280;39616;48.872;9.390;2022-08-19T07:10:45;97961.63;;;19.56;100.00
53719;BME280;39616;48.872;9.390;2022-08-19T07:13:15;97958.25;;;19.63;100.00
53719;BME280;39616;48.872;9.390;2022-08-19T07:15:46;97963.66;;;19.59;100.00
53719;BME280;39616;48.872;9.390;2022-08-19T07:18:18;97968.00;;;19.60;100.00
53719;BME280;39616;48.872;9.390;2022-08-19T07:20:49;97967.94;;;19.57;100.00
53719;BME280;39616;48.872;9.390;2022-08-19T07:23:20;97967.22;;;19.40;100.00
53719;BME280;39616;48.872;9.390;2022-08-19T07:25:50;97967.50;;;19.35;100.00
53719;BME280;39616;48.872;9.390;2022-08-19T07:28:20;97968.75;;;19.38;100.00
53719;BME280;39616;48.872;9.390;2022-08-19T07:30:52;97964.75;;;19.35;100.00
53719;BME280;39616;48.872;9.390;2022-08-19T07:33:22;97971.00;;;19.32;100.00
53719;BME280;39616;48.872;9.390;2022-08-19T07:35:53;97965.88;;;19.30;100.00
53719;BME280;39616;48.872;9.390;2022-08-19T07:38:24;97969.44;;;19.54;100.00
53719;BME280;39616;48.872;9.390;2022-08-19T07:40:55;97981.84;;;19.25;100.00
53719;BME280;39616;48.872;9.390;2022-08-19T07:43:26;97982.56;;;19.22;100.00
53719;BME280;39616;48.872;9.390;2022-08-19T07:45:56;97983.72;;;19.21;100.00
53719;BME280;39616;48.872;9.390;2022-08-19T07:48:28;97983.78;;;19.05;100.00
53719;BME280;39616;48.872;9.390;2022-08-19T07:51:01;97975.47;;;19.01;100.00
53719;BME280;39616;48.872;9.390;2022-08-19T07:53:35;97985.22;;;18.99;100.00
53719;BME280;39616;48.872;9.390;2022-08-19T07:56:06;97980.81;;;19.14;100.00
53719;BME280;39616;48.872;9.390;2022-08-19T07:58:39;97974.53;;;19.13;100.00
53719;BME280;39616;48.872;9.390;2022-08-19T08:01:25;97973.25;;;19.26;100.00
53719;BME280;39616;48.872;9.390;2022-08-19T08:03:57;97980.09;;;19.17;100.00
53719;BME280;39616;48.872;9.390;2022-08-19T08:06:52;97982.94;;;19.20;100.00
53719;BME280;39616;48.872;9.390;2022-08-19T08:09:42;97987.19;;;19.18;100.00
53719;BME280;39616;48.872;9.390;2022-08-19T08:12:17;97991.53;;;19.19;100.00
53719;BME280;39616;48.872;9.390;2022-08-19T08:14:50;97985.97;;;19.15;100.00
53719;BME280;39616;48.872;9.390;2022-08-19T08:17:24;97998.19;;;19.18;100.00
53719;BME280;39616;48.872;9.390;2022-08-19T08:19:55;97997.91;;;19.23;100.00
53719;BME280;39616;48.872;9.390;2022-08-19T08:22:25;97994.72;;;19.21;100.00
53719;BME280;39616;48.872;9.390;2022-08-19T08:25:18;98002.25;;;19.24;100.00
53719;BME280;39616;48.872;9.390;2022-08-19T08:27:49;97996.22;;;19.18;100.00
53719;BME280;39616;48.872;9.390;2022-08-19T08:30:23;97991.63;;;19.22;100.00
53719;BME280;39616;48.872;9.390;2022-08-19T08:32:54;97994.06;;;19.27;100.00
53719;BME280;39616;48.872;9.390;2022-08-19T08:35:24;98000.81;;;19.30;100.00
53719;BME280;39616;48.872;9.390;2022-08-19T08:37:55;97994.16;;;19.31;100.00
53719;BME280;39616;48.872;9.390;2022-08-19T08:40:29;97992.13;;;19.28;100.00
53719;BME280;39616;48.872;9.390;2022-08-19T08:46:17;97989.09;;;19.33;100.00
53719;BME280;39616;48.872;9.390;2022-08-19T08:52:21;97986.63;;;19.28;100.00
53719;BME280;39616;48.872;9.390;2022-08-19T08:54:50;97984.44;;;19.18;100.00
53719;BME280;39616;48.872;9.390;2022-08-19T08:59:58;97996.66;;;19.20;100.00
53719;BME280;39616;48.872;9.390;2022-08-19T09:02:30;97996.22;;;19.18;100.00
53719;BME280;39616;48.872;9.390;2022-08-19T09:05:00;97997.91;;;19.23;100.00
53719;BME280;39616;48.872;9.390;2022-08-19T09:15:48;98006.13;;;19.03;100.00
53719;BME280;39616;48.872;9.390;2022-08-19T09:18:21;98007.81;;;19.08;100.00
53719;BME280;39616;48.872;9.390;2022-08-19T09:20:51;98019.38;;;19.17;100.00
53719;BME280;39616;48.872;9.390;2022-08-19T09:23:22;98021.41;;;19.20;100.00
53719;BME280;39616;48.872;9.390;2022-08-19T09:25:54;98022.03;;;19.14;100.00
53719;BME280;39616;48.872;9.390;2022-08-19T09:28:24;98014.75;;;19.21;100.00
53719;BME280;39616;48.872;9.390;2022-08-19T09:30:54;98012.72;;;19.18;100.00
53719;BME280;39616;48.872;9.390;2022-08-19T09:33:24;98014.75;;;19.21;100.00
53719;BME280;39616;48.872;9.390;2022-08-19T09:36:07;98007.66;;;19.20;100.00
53719;BME280;39616;48.872;9.390;2022-08-19T09:38:39;98013.38;;;19.31;100.00
53719;BME280;39616;48.872;9.390;2022-08-19T09:41:16;98013.94;;;19.40;100.00
53719;BME280;39616;48.872;9.390;2022-08-19T09:43:49;98007.81;;;19.47;100.00
53719;BME280;39616;48.872;9.390;2022-08-19T09:46:23;98007.81;;;19.47;100.00
53719;BME280;39616;48.872;9.390;2022-08-19T09:48:54;98016.63;;;19.56;100.00
53719;BME280;39616;48.872;9.390;2022-08-19T09:51:26;98012.72;;;19.57;100.00
53719;BME280;39616;48.872;9.390;2022-08-19T09:54:00;98016.06;;;19.47;100.00
53719;BME280;39616;48.872;9.390;2022-08-19T09:56:32;98020.50;;;19.51;100.00
53719;BME280;39616;48.872;9.390;2022-08-19T09:59:02;98015.78;;;19.52;100.00
53719;BME280;39616;48.872;9.390;2022-08-19T10:01:33;98023.88;;;19.45;100.00
53719;BME280;39616;48.872;9.390;2022-08-19T10:04:04;98020.91;;;19.53;100.00
53719;BME280;39616;48.872;9.390;2022-08-19T10:06:41;98020.13;;;19.53;100.00
53719;BME280;39616;48.872;9.390;2022-08-19T10:09:13;98004.47;;;19.57;100.00
53719;BME280;39616;48.872;9.390;2022-08-19T10:11:44;98012.91;;;19.64;100.00
53719;BME280;39616;48.872;9.390;2022-08-19T10:14:19;98006.22;;;19.65;100.00
53719;BME280;39616;48.872;9.390;2022-08-19T10:16:52;98007.53;;;19.71;100.00
53719;BME280;39616;48.872;9.390;2022-08-19T10:19:22;98006.28;;;19.69;100.00
53719;BME280;39616;48.872;9.390;2022-08-19T10:21:53;98008.25;;;19.68;100.00
53719;BME280;39616;48.872;9.390;2022-08-19T10:24:24;98004.00;;;19.71;100.00
53719;BME280;39616;48.872;9.390;2022-08-19T10:26:56;98005.44;;;19.65;100.00
53719;BME280;39616;48.872;9.390;2022-08-19T10:29:27;98004.72;;;19.68;100.00
53719;BME280;39616;48.872;9.390;2022-08-19T10:31:59;97997.31;;;19.72;100.00
53719;BME280;39616;48.872;9.390;2022-08-19T10:34:30;98001.50;;;19.85;100.00
53719;BME280;39616;48.872;9.390;2022-08-19T10:37:00;97994.28;;;20.00;100.00
53719;BME280;39616;48.872;9.390;2022-08-19T10:39:33;97988.53;;;20.09;100.00
53719;BME280;39616;48.872;9.390;2022-08-19T10:42:05;97987.88;;;20.15;100.00
53719;BME280;39616;48.872;9.390;2022-08-19T10:44:36;97985.59;;;20.21;100.00
53719;BME280;39616;48.872;9.390;2022-08-19T10:47:07;97997.44;;;20.25;100.00
53719;BME280;39616;48.872;9.390;2022-08-19T10:49:37;97998.69;;;20.27;100.00
53719;BME280;39616;48.872;9.390;2022-08-19T10:52:27;98004.13;;;20.24;100.00
53719;BME280;39616;48.872;9.390;2022-08-19T10:55:06;98000.19;;;20.25;100.00
53719;BME280;39616;48.872;9.390;2022-08-19T10:57:55;98008.06;;;20.23;100.00
53719;BME280;39616;48.872;9.390;2022-08-19T11:00:27;98006.03;;;20.20;100.00
53719;BME280;39616;48.872;9.390;2022-08-19T11:02:57;98001.56;;;20.12;100.00
53719;BME280;39616;48.872;9.390;2022-08-19T11:14:17;97994.28;;;20.00;100.00
53719;BME280;39616;48.872;9.390;2022-08-19T11:16:52;97987.63;;;20.01;100.00
53719;BME280;39616;48.872;9.390;2022-08-19T11:19:25;97989.59;;;20.00;100.00
53719;BME280;39616;48.872;9.390;2022-08-19T11:21:56;97981.28;;;19.97;100.00
53719;BME280;39616;48.872;9.390;2022-08-19T11:24:26;97985.66;;;20.01;100.00
53719;BME280;39616;48.872;9.390;2022-08-19T11:27:02;97976.31;;;20.06;100.00
53719;BME280;39616;48.872;9.390;2022-08-19T11:29:37;97986.56;;;20.09;100.00
53719;BME280;39616;48.872;9.390;2022-08-19T11:32:09;97980.41;;;20.16;100.00
53719;BME280;39616;48.872;9.390;2022-08-19T11:34:40;97984.69;;;20.13;100.00
53719;BME280;39616;48.872;9.390;2022-08-19T11:37:11;97985.34;;;20.07;100.00
53719;BME280;39616;48.872;9.390;2022-08-19T11:39:41;97991.16;;;20.01;100.00
53719;BME280;39616;48.872;9.390;2022-08-19T11:42:11;97992.69;;;19.99;100.00
53719;BME280;39616;48.872;9.390;2022-08-19T11:45:00;97987.19;;;19.99;100.00
53719;BME280;39616;48.872;9.390;2022-08-19T11:47:33;97982.91;;;20.01;100.00
53719;BME280;39616;48.872;9.390;2022-08-19T11:50:04;97989.66;;;20.04;100.00
53719;BME280;39616;48.872;9.390;2022-08-19T11:52:35;97990.91;;;20.10;100.00
53719;BME280;39616;48.872;9.390;2022-08-19T11:55:09;97981.56;;;20.15;100.00
53719;BME280;39616;48.872;9.390;2022-08-19T11:57:41;97986.28;;;20.14;100.00
53719;BME280;39616;48.872;9.390;2022-08-19T12:00:13;97986.34;;;20.18;100.00
53719;BME280;39616;48.872;9.390;2022-08-19T12:02:43;97981.69;;;20.22;100.00
53719;BME280;39616;48.872;9.390;2022-08-19T12:05:14;97986.50;;;20.28;100.00
53719;BME280;39616;48.872;9.390;2022-08-19T12:07:44;97980.69;;;20.34;100.00
53719;BME280;39616;48.872;9.390;2022-08-19T12:10:14;97982.41;;;20.42;100.00
53719;BME280;39616;48.872;9.390;2022-08-19T12:12:45;97983.69;;;20.48;100.00
53719;BME280;39616;48.872;9.390;2022-08-19T12:15:16;97983.03;;;20.55;100.00
53719;BME280;39616;48.872;9.390;2022-08-19T12:17:46;97988.22;;;20.60;100.00
53719;BME280;39616;48.872;9.390;2022-08-19T12:20:17;97983.94;;;20.62;100.00
53719;BME280;39616;48.872;9.390;2022-08-19T12:22:47;97983.53;;;20.64;100.00
53719;BME280;39616;48.872;9.390;2022-08-19T12:25:18;97982.06;;;20.70;100.00
53719;BME280;39616;48.872;9.390;2022-08-19T12:27:49;97992.34;;;20.73;100.00
53719;BME280;39616;48.872;9.390;2022-08-19T12:30:19;97990.75;;;20.72;100.00
53719;BME280;39616;48.872;9.390;2022-08-19T12:32:50;97993.50;;;20.72;100.00
53719;BME280;39616;48.872;9.390;2022-08-19T12:35:21;97995.06;;;20.69;100.00
53719;BME280;39616;48.872;9.390;2022-08-19T12:37:51;97993.34;;;20.61;100.00
53719;BME280;39616;48.872;9.390;2022-08-19T12:40:22;97990.53;;;20.58;100.00
53719;BME280;39616;48.872;9.390;2022-08-19T12:42:54;97991.28;;;20.55;100.00
53719;BME280;39616;48.872;9.390;2022-08-19T12:45:24;97995.00;;;20.66;100.00
53719;BME280;39616;48.872;9.390;2022-08-19T12:47:55;97991.53;;;20.72;100.00
53719;BME280;39616;48.872;9.390;2022-08-19T12:50:25;97988.19;;;20.86;100.00
53719;BME280;39616;48.872;9.390;2022-08-19T12:52:56;97991.16;;;21.01;100.00
53719;BME280;39616;48.872;9.390;2022-08-19T12:55:27;98001.09;;;21.09;100.00
53719;BME280;39616;48.872;9.390;2022-08-19T12:57:58;98001.56;;;21.14;100.00
53719;BME280;39616;48.872;9.390;2022-08-19T13:00:31;98004.00;;;21.19;100.00
53719;BME280;39616;48.872;9.390;2022-08-19T13:03:05;98009.59;;;21.27;100.00
53719;BME280;39616;48.872;9.390;2022-08-19T13:05:35;98003.69;;;21.28;100.00
53719;BME280;39616;48.872;9.390;2022-08-19T13:08:05;98002.13;;;21.27;100.00
53719;BME280;39616;48.872;9.390;2022-08-19T13:10:36;98006.00;;;21.22;100.00
53719;BME280;39616;48.872;9.390;2022-08-19T13:13:08;98002.56;;;21.29;100.00
53719;BME280;39616;48.872;9.390;2022-08-19T13:15:41;98010.38;;;21.27;100.00
53719;BME280;39616;48.872;9.390;2022-08-19T13:18:13;98007.69;;;21.31;100.00
53719;BME280;39616;48.872;9.390;2022-08-19T13:20:44;98015.59;;;21.32;100.00
53719;BME280;39616;48.872;9.390;2022-08-19T13:23:14;98007.88;;;21.45;100.00
53719;BME280;39616;48.872;9.390;2022-08-19T13:25:55;98011.06;;;21.47;100.00
53719;BME280;39616;48.872;9.390;2022-08-19T13:28:25;98007.94;;;21.49;100.00
53719;BME280;39616;48.872;9.390;2022-08-19T13:30:56;98006.31;;;21.44;100.00
53719;BME280;39616;48.872;9.390;2022-08-19T13:33:45;98004.28;;;21.41;100.00
53719;BME280;39616;48.872;9.390;2022-08-19T13:36:15;98005.25;;;21.26;100.00
53719;BME280;39616;48.872;9.390;2022-08-19T13:38:45;98006.34;;;21.17;100.00
53719;BME280;39616;48.872;9.390;2022-08-19T13:41:16;98006.41;;;20.94;100.00
53719;BME280;39616;48.872;9.390;2022-08-19T13:43:48;98007.47;;;20.86;100.00